createdAt,value
2022-08-27T00:01:18.163Z,100356.76
2022-08-27T00:03:45.055Z,100354.65
2022-08-27T00:06:17.016Z,100352.67
2022-08-27T00:08:45.195Z,100353.86
2022-08-27T00:11:12.410Z,100358.50
2022-08-27T00:13:39.643Z,100356.45
2022-08-27T00:16:08.972Z,100360.74
2022-08-27T00:18:36.290Z,100359.85
2022-08-27T00:21:04.411Z,100359.16
2022-08-27T00:23:34.074Z,100354.81
2022-08-27T00:26:00.648Z,100348.69
2022-08-27T00:28:28.383Z,100354.38
2022-08-27T00:30:55.524Z,100352.83
2022-08-27T00:33:22.787Z,100355.19
2022-08-27T00:35:50.144Z,100361.11
2022-08-27T00:38:17.739Z,100362.74
2022-08-27T00:40:45.067Z,100367.56
2022-08-27T00:43:11.888Z,100368.07
2022-08-27T00:45:42.748Z,100369.02
2022-08-27T00:48:14.601Z,100365.93
2022-08-27T00:50:51.791Z,100367.17
2022-08-27T00:53:22.633Z,100364.18
2022-08-27T00:55:55.239Z,100367.93
2022-08-27T00:58:36.594Z,100365.26
2022-08-27T01:01:05.934Z,100356.91
2022-08-27T01:03:33.892Z,100353.17
2022-08-27T01:06:02.339Z,100352.77
2022-08-27T01:08:35.506Z,100353.63
2022-08-27T01:11:02.170Z,100354.13
2022-08-27T01:13:59.259Z,100360.50
2022-08-27T01:16:23.570Z,100352.51
2022-08-27T01:18:50.862Z,100354.30
2022-08-27T01:21:35.540Z,100355.98
2022-08-27T01:24:29.727Z,100357.73
2022-08-27T01:26:58.940Z,100361.33
2022-08-27T01:29:26.257Z,100355.30
2022-08-27T01:31:52.819Z,100356.43
2022-08-27T01:34:19.348Z,100358.54
2022-08-27T01:36:45.898Z,100359.25
2022-08-27T01:39:12.853Z,100366.70
2022-08-27T01:41:39.862Z,100383.04
2022-08-27T01:44:06.257Z,100375.25
2022-08-27T01:46:32.720Z,100367.35
2022-08-27T01:48:59.319Z,100370.91
2022-08-27T01:51:25.646Z,100371.44
2022-08-27T01:53:52.461Z,100375.54
2022-08-27T01:56:19.343Z,100372.02
2022-08-27T01:58:45.858Z,100372.05
2022-08-27T02:01:16.226Z,100364.35
2022-08-27T02:03:44.018Z,100364.36
2022-08-27T02:06:11.753Z,100363.61
2022-08-27T02:08:39.237Z,100360.79
2022-08-27T02:11:07.752Z,100361.17
2022-08-27T02:13:34.703Z,100365.58
2022-08-27T02:16:01.235Z,100357.64
2022-08-27T02:18:27.684Z,100351.81
2022-08-27T02:20:54.228Z,100356.25
2022-08-27T02:23:21.234Z,100354.31
2022-08-27T02:25:47.823Z,100356.30
2022-08-27T02:28:14.404Z,100355.79
2022-08-27T02:30:40.935Z,100354.39
2022-08-27T02:33:07.351Z,100352.11
2022-08-27T02:35:38.316Z,100351.61
2022-08-27T02:38:05.779Z,100349.86
2022-08-27T02:40:32.828Z,100348.48
2022-08-27T02:42:59.347Z,100348.70
2022-08-27T02:45:25.815Z,100343.27
2022-08-27T02:47:53.349Z,100346.05
2022-08-27T02:50:19.874Z,100341.30
2022-08-27T02:52:46.951Z,100339.38
2022-08-27T02:55:13.847Z,100337.97
2022-08-27T02:57:40.369Z,100334.07
2022-08-27T03:00:11.535Z,100331.78
2022-08-27T03:02:38.480Z,100329.70
2022-08-27T03:05:07.160Z,100324.29
2022-08-27T03:07:33.803Z,100324.83
2022-08-27T03:10:00.271Z,100325.38
2022-08-27T03:12:26.825Z,100324.13
2022-08-27T03:14:53.254Z,100325.34
2022-08-27T03:17:38.398Z,100327.46
2022-08-27T03:20:06.626Z,100323.58
2022-08-27T03:22:33.045Z,100321.28
2022-08-27T03:25:01.941Z,100321.34
2022-08-27T03:27:28.318Z,100323.11
2022-08-27T03:29:54.801Z,100324.52
2022-08-27T03:32:21.374Z,100324.52
2022-08-27T03:34:48.053Z,100329.80
2022-08-27T03:37:14.444Z,100329.48
2022-08-27T03:39:40.873Z,100333.71
2022-08-27T03:42:07.447Z,100334.78
2022-08-27T03:44:34.505Z,100332.48
2022-08-27T03:47:01.049Z,100329.33
2022-08-27T03:49:27.942Z,100333.58
2022-08-27T03:51:54.859Z,100333.77
2022-08-27T03:54:21.254Z,100333.44
2022-08-27T03:56:48.351Z,100337.53
2022-08-27T03:59:15.282Z,100340.36
2022-08-27T04:01:43.230Z,100343.77
2022-08-27T04:04:10.190Z,100343.95
2022-08-27T04:06:36.541Z,100349.08
2022-08-27T04:09:04.498Z,100353.69
2022-08-27T04:11:33.915Z,100357.05
2022-08-27T04:14:04.539Z,100355.80
2022-08-27T04:16:44.899Z,100360.77
2022-08-27T04:19:12.359Z,100361.61
2022-08-27T04:21:42.413Z,100361.77
2022-08-27T04:24:10.650Z,100360.82
2022-08-27T04:26:40.356Z,100354.78
2022-08-27T04:29:06.899Z,100354.27
2022-08-27T04:31:34.803Z,100357.90
2022-08-27T04:34:01.520Z,100360.14
2022-08-27T04:36:27.874Z,100354.64
2022-08-27T04:38:54.398Z,100359.49
2022-08-27T04:41:21.773Z,100356.83
2022-08-27T04:43:51.749Z,100355.75
2022-08-27T04:46:28.319Z,100358.85
2022-08-27T04:48:56.788Z,100361.65
2022-08-27T04:51:24.640Z,100366.98
2022-08-27T04:53:51.868Z,100366.25
2022-08-27T04:56:21.720Z,100371.60
2022-08-27T04:58:50.139Z,100375.40
2022-08-27T05:01:25.353Z,100373.77
2022-08-27T05:03:53.140Z,100372.65
2022-08-27T05:06:20.263Z,100372.80
2022-08-27T05:08:49.475Z,100377.83
2022-08-27T05:11:17.970Z,100386.75
2022-08-27T05:13:45.614Z,100385.79
2022-08-27T05:16:20.210Z,100379.33
2022-08-27T05:18:49.524Z,100386.84
2022-08-27T05:21:22.449Z,100383.00
2022-08-27T05:23:50.222Z,100381.37
2022-08-27T05:26:16.656Z,100379.27
2022-08-27T05:28:43.635Z,100380.70
2022-08-27T05:31:12.607Z,100379.82
2022-08-27T05:33:41.517Z,100374.86
2022-08-27T05:36:17.824Z,100382.60
2022-08-27T05:38:44.162Z,100378.91
2022-08-27T05:41:16.685Z,100380.83
2022-08-27T05:43:49.125Z,100381.36
2022-08-27T05:46:19.703Z,100379.58
2022-08-27T05:48:47.281Z,100379.55
2022-08-27T05:51:25.963Z,100380.30
2022-08-27T05:54:08.596Z,100373.18
2022-08-27T05:56:37.667Z,100373.12
2022-08-27T05:59:24.259Z,100372.08
2022-08-27T06:01:52.697Z,100367.54
2022-08-27T06:04:20.846Z,100365.42
2022-08-27T06:06:48.594Z,100371.66
2022-08-27T06:09:18.394Z,100366.95
2022-08-27T06:11:45.823Z,100367.14
2022-08-27T06:14:12.206Z,100362.48
2022-08-27T06:16:39.934Z,100366.41
2022-08-27T06:19:08.388Z,100361.48
2022-08-27T06:21:34.950Z,100359.36
2022-08-27T06:24:01.782Z,100358.08
2022-08-27T06:26:28.825Z,100362.34
2022-08-27T06:28:55.326Z,100367.98
2022-08-27T06:31:26.700Z,100382.49
2022-08-27T06:34:03.070Z,100388.90
2022-08-27T06:36:40.410Z,100394.39
2022-08-27T06:39:08.392Z,100396.33
2022-08-27T06:41:35.200Z,100394.60
2022-08-27T06:44:02.025Z,100392.64
2022-08-27T06:46:29.328Z,100391.36
2022-08-27T06:48:58.784Z,100393.71
2022-08-27T06:51:28.115Z,100395.11
2022-08-27T06:53:57.404Z,100398.44
2022-08-27T06:56:24.263Z,100407.11
2022-08-27T06:58:56.298Z,100407.50
2022-08-27T07:01:30.259Z,100402.58
2022-08-27T07:04:03.309Z,100405.14
2022-08-27T07:06:31.174Z,100415.19
2022-08-27T07:08:58.523Z,100410.77
2022-08-27T07:11:29.071Z,100409.43
2022-08-27T07:13:55.680Z,100411.88
2022-08-27T07:16:24.055Z,100410.83
2022-08-27T07:18:52.789Z,100407.30
2022-08-27T07:21:20.761Z,100411.66
2022-08-27T07:23:49.848Z,100419.23
2022-08-27T07:26:17.220Z,100411.57
2022-08-27T07:28:44.293Z,100409.44
2022-08-27T07:31:13.094Z,100411.37
2022-08-27T07:33:40.433Z,100408.73
2022-08-27T07:36:12.876Z,100403.16
2022-08-27T07:38:39.764Z,100404.14
2022-08-27T07:41:10.843Z,100408.75
2022-08-27T07:43:57.228Z,100409.11
2022-08-27T07:46:24.431Z,100407.96
2022-08-27T07:48:51.943Z,100405.92
2022-08-27T07:51:21.273Z,100408.02
2022-08-27T07:53:47.860Z,100400.66
2022-08-27T07:56:15.262Z,100401.11
2022-08-27T07:58:42.546Z,100402.98
2022-08-27T08:01:10.286Z,100407.67
2022-08-27T08:03:36.915Z,100402.77
2022-08-27T08:06:13.166Z,100408.39
2022-08-27T08:08:41.063Z,100406.75
2022-08-27T08:11:13.526Z,100406.92
2022-08-27T08:13:40.758Z,100413.02
2022-08-27T08:16:07.617Z,100411.55
2022-08-27T08:18:36.815Z,100409.41
2022-08-27T08:21:06.776Z,100411.35
2022-08-27T08:23:34.131Z,100414.67
2022-08-27T08:26:00.918Z,100414.11
2022-08-27T08:28:29.535Z,100412.71
2022-08-27T08:30:56.810Z,100409.80
2022-08-27T08:33:23.463Z,100405.20
2022-08-27T08:35:50.393Z,100403.05
2022-08-27T08:38:19.787Z,100400.60
2022-08-27T08:40:49.981Z,100404.41
2022-08-27T08:43:30.850Z,100398.90
2022-08-27T08:46:21.447Z,100395.64
2022-08-27T08:48:54.802Z,100396.02
2022-08-27T08:51:32.289Z,100396.60
2022-08-27T08:54:05.085Z,100393.16
2022-08-27T08:56:43.121Z,100391.02
2022-08-27T08:59:33.017Z,100390.72
2022-08-27T09:01:59.779Z,100393.67
2022-08-27T09:04:27.605Z,100389.05
2022-08-27T09:07:00.361Z,100392.50
2022-08-27T09:10:04.304Z,100394.00
2022-08-27T09:12:32.601Z,100390.77
2022-08-27T09:15:07.591Z,100388.20
2022-08-27T09:17:41.351Z,100385.39
2022-08-27T09:20:13.029Z,100389.27
2022-08-27T09:22:55.330Z,100388.88
2022-08-27T09:25:33.342Z,100388.73
2022-08-27T09:28:05.505Z,100389.32
2022-08-27T09:30:42.087Z,100384.85
2022-08-27T09:33:08.555Z,100382.48
2022-08-27T09:35:44.268Z,100382.34
2022-08-27T09:38:18.996Z,100378.60
2022-08-27T09:40:49.964Z,100380.95
2022-08-27T09:43:16.378Z,100381.38
2022-08-27T09:45:50.088Z,100377.14
2022-08-27T09:48:30.390Z,100380.39
2022-08-27T09:51:02.068Z,100377.05
2022-08-27T09:53:38.510Z,100380.58
2022-08-27T09:56:09.309Z,100382.39
2022-08-27T09:59:02.152Z,100377.45
2022-08-27T10:01:32.961Z,100380.33
2022-08-27T10:04:04.200Z,100380.98
2022-08-27T10:06:32.164Z,100377.80
2022-08-27T10:09:16.004Z,100379.05
2022-08-27T10:11:57.763Z,100374.80
2022-08-27T10:14:31.519Z,100374.64
2022-08-27T10:17:01.336Z,100373.23
2022-08-27T10:19:40.177Z,100374.36
2022-08-27T10:22:16.346Z,100373.05
2022-08-27T10:24:58.611Z,100368.98
2022-08-27T10:27:53.522Z,100371.17
2022-08-27T10:30:28.521Z,100369.27
2022-08-27T10:33:21.446Z,100370.08
2022-08-27T10:36:26.239Z,100365.54
2022-08-27T10:38:56.027Z,100362.68
2022-08-27T10:41:28.586Z,100361.11
2022-08-27T10:44:32.434Z,100356.98
2022-08-27T10:47:39.743Z,100357.20
2022-08-27T10:50:41.749Z,100354.30
2022-08-27T10:53:17.235Z,100358.50
2022-08-27T10:55:51.062Z,100350.31
2022-08-27T10:58:32.889Z,100349.42
2022-08-27T11:01:18.295Z,100353.55
2022-08-27T11:03:58.702Z,100356.21
2022-08-27T11:06:50.734Z,100355.02
2022-08-27T11:09:22.016Z,100353.83
2022-08-27T11:12:13.981Z,100353.75
2022-08-27T11:14:50.192Z,100350.67
2022-08-27T11:17:40.653Z,100350.77
2022-08-27T11:20:13.358Z,100347.23
2022-08-27T11:22:55.944Z,100344.04
2022-08-27T11:25:22.452Z,100346.93
2022-08-27T11:27:53.036Z,100342.02
2022-08-27T11:30:28.446Z,100342.38
2022-08-27T11:33:13.736Z,100339.98
2022-08-27T11:36:09.212Z,100344.45
2022-08-27T11:38:58.217Z,100341.79
2022-08-27T11:41:27.739Z,100344.50
2022-08-27T11:43:54.839Z,100343.19
2022-08-27T11:46:25.136Z,100335.64
2022-08-27T11:49:01.680Z,100337.27
2022-08-27T11:51:37.862Z,100333.23
2022-08-27T11:54:22.655Z,100332.23
2022-08-27T11:56:49.081Z,100336.73
2022-08-27T11:59:21.365Z,100332.55
2022-08-27T12:01:49.617Z,100329.86
2022-08-27T12:04:25.216Z,100330.93
2022-08-27T12:07:01.002Z,100326.55
2022-08-27T12:09:29.157Z,100322.16
2022-08-27T12:12:36.778Z,100323.86
2022-08-27T12:15:22.140Z,100319.86
2022-08-27T12:18:09.211Z,100315.95
2022-08-27T12:20:56.824Z,100316.27
2022-08-27T12:23:40.599Z,100312.63
2022-08-27T12:26:28.194Z,100312.77
2022-08-27T12:29:30.536Z,100311.27
2022-08-27T12:32:29.341Z,100308.68
2022-08-27T12:35:26.523Z,100307.38
2022-08-27T12:38:03.248Z,100305.69
2022-08-27T12:40:45.872Z,100301.94
2022-08-27T12:43:25.530Z,100303.28
2022-08-27T12:45:56.515Z,100304.66
2022-08-27T12:48:27.445Z,100302.04
2022-08-27T12:51:01.130Z,100299.15
2022-08-27T12:53:52.119Z,100299.98
2022-08-27T12:56:37.007Z,100298.29
2022-08-27T12:59:34.440Z,100295.45
2022-08-27T13:02:40.226Z,100291.85
2022-08-27T13:05:10.048Z,100286.98
2022-08-27T13:07:45.576Z,100286.40
2022-08-27T13:10:13.827Z,100289.64
2022-08-27T13:12:42.257Z,100287.11
2022-08-27T13:15:11.078Z,100288.60
2022-08-27T13:17:44.084Z,100289.08
2022-08-27T13:20:25.176Z,100288.51
2022-08-27T13:22:53.386Z,100289.95
2022-08-27T13:25:28.174Z,100289.27
2022-08-27T13:28:13.673Z,100291.10
2022-08-27T13:30:44.415Z,100287.98
2022-08-27T13:33:18.902Z,100287.04
2022-08-27T13:35:46.911Z,100286.65
2022-08-27T13:38:15.019Z,100282.59
2022-08-27T13:40:50.587Z,100282.31
2022-08-27T13:43:17.890Z,100282.40
2022-08-27T13:45:49.530Z,100283.27
2022-08-27T13:48:18.923Z,100279.80
2022-08-27T13:50:51.473Z,100282.64
2022-08-27T13:53:40.417Z,100280.34
2022-08-27T13:56:07.101Z,100277.54
2022-08-27T13:58:34.494Z,100277.39
2022-08-27T14:01:13.836Z,100278.67
2022-08-27T14:04:09.306Z,100278.54
2022-08-27T14:06:45.807Z,100274.58
2022-08-27T14:09:22.112Z,100274.39
2022-08-27T14:11:57.739Z,100273.08
2022-08-27T14:14:24.651Z,100275.02
2022-08-27T14:17:02.417Z,100272.61
2022-08-27T14:19:36.877Z,100276.61
2022-08-27T14:22:03.892Z,100272.74
2022-08-27T14:24:30.571Z,100273.34
2022-08-27T14:27:05.815Z,100270.48
2022-08-27T14:29:32.243Z,100272.92
2022-08-27T14:31:58.885Z,100270.68
2022-08-27T14:34:25.333Z,100271.19
2022-08-27T14:36:54.825Z,100269.88
2022-08-27T14:39:22.002Z,100272.16
2022-08-27T14:41:53.642Z,100274.42
2022-08-27T14:44:21.603Z,100272.77
2022-08-27T14:46:48.510Z,100273.77
2022-08-27T14:49:24.348Z,100272.41
2022-08-27T14:51:50.959Z,100271.97
2022-08-27T14:54:17.630Z,100274.02
2022-08-27T14:56:44.229Z,100270.16
2022-08-27T14:59:10.955Z,100269.90
2022-08-27T15:01:38.289Z,100269.73
2022-08-27T15:04:05.756Z,100271.32
2022-08-27T15:06:32.909Z,100272.43
2022-08-27T15:09:00.271Z,100272.71
2022-08-27T15:11:31.216Z,100277.79
2022-08-27T15:13:59.577Z,100276.59
2022-08-27T15:16:37.806Z,100277.04
2022-08-27T15:19:06.617Z,100277.24
2022-08-27T15:21:35.270Z,100275.64
2022-08-27T15:24:05.931Z,100277.23
2022-08-27T15:26:34.193Z,100276.17
2022-08-27T15:29:05.580Z,100278.13
2022-08-27T15:31:33.436Z,100277.16
2022-08-27T15:34:00.433Z,100279.15
2022-08-27T15:36:26.919Z,100277.95
2022-08-27T15:38:54.553Z,100275.98
2022-08-27T15:41:24.262Z,100276.61
2022-08-27T15:43:52.607Z,100272.92
2022-08-27T15:46:19.227Z,100274.37
2022-08-27T15:48:45.802Z,100272.81
2022-08-27T15:51:13.161Z,100272.29
2022-08-27T15:53:41.340Z,100273.50
2022-08-27T15:56:09.006Z,100273.18
2022-08-27T15:58:36.985Z,100272.65
2022-08-27T16:01:13.339Z,100273.18
2022-08-27T16:03:45.605Z,100274.27
2022-08-27T16:06:17.501Z,100273.55
2022-08-27T16:08:46.256Z,100271.05
2022-08-27T16:11:12.998Z,100269.80
2022-08-27T16:13:41.479Z,100266.06
2022-08-27T16:16:08.727Z,100262.02
2022-08-27T16:18:36.034Z,100262.09
2022-08-27T16:21:03.594Z,100258.68
2022-08-27T16:23:31.262Z,100254.63
2022-08-27T16:25:58.191Z,100255.96
2022-08-27T16:28:25.126Z,100252.42
2022-08-27T16:30:53.876Z,100253.72
2022-08-27T16:33:20.951Z,100249.83
2022-08-27T16:35:47.688Z,100247.98
2022-08-27T16:38:14.170Z,100245.67
2022-08-27T16:40:46.280Z,100247.79
2022-08-27T16:43:20.545Z,100247.19
2022-08-27T16:45:48.976Z,100250.36
2022-08-27T16:48:35.305Z,100248.52
2022-08-27T16:51:03.669Z,100250.90
2022-08-27T16:53:34.039Z,100253.77
2022-08-27T16:56:01.156Z,100256.67
2022-08-27T16:58:29.997Z,100262.60
2022-08-27T17:01:01.053Z,100263.16
2022-08-27T17:03:29.986Z,100271.56
2022-08-27T17:05:58.144Z,100272.79
2022-08-27T17:08:28.282Z,100276.02
2022-08-27T17:10:55.983Z,100279.98
2022-08-27T17:13:28.238Z,100283.63
2022-08-27T17:15:56.017Z,100285.88
2022-08-27T17:18:27.157Z,100290.70
2022-08-27T17:20:55.305Z,100294.38
2022-08-27T17:23:33.986Z,100296.23
2022-08-27T17:26:03.022Z,100298.71
2022-08-27T17:28:29.423Z,100299.76
2022-08-27T17:30:57.072Z,100298.87
2022-08-27T17:33:39.705Z,100298.08
2022-08-27T17:36:08.306Z,100301.48
2022-08-27T17:38:38.132Z,100303.65
2022-08-27T17:41:31.710Z,100307.62
2022-08-27T17:44:04.873Z,100311.64
2022-08-27T17:46:31.893Z,100317.02
2022-08-27T17:48:59.084Z,100319.15
2022-08-27T17:51:27.259Z,100322.95
2022-08-27T17:54:00.891Z,100321.47
2022-08-27T17:56:28.662Z,100320.76
2022-08-27T17:58:55.724Z,100322.31
2022-08-27T18:01:28.686Z,100324.00
2022-08-27T18:03:56.834Z,100326.80
2022-08-27T18:06:24.995Z,100330.64
2022-08-27T18:08:51.684Z,100333.94
2022-08-27T18:11:19.023Z,100338.33
2022-08-27T18:13:48.914Z,100341.05
2022-08-27T18:16:15.358Z,100343.16
2022-08-27T18:18:41.857Z,100342.26
2022-08-27T18:21:08.643Z,100344.23
2022-08-27T18:23:36.902Z,100345.55
2022-08-27T18:26:07.490Z,100344.54
2022-08-27T18:28:34.167Z,100347.77
2022-08-27T18:31:05.600Z,100348.38
2022-08-27T18:33:33.480Z,100351.58
2022-08-27T18:36:00.019Z,100350.86
2022-08-27T18:38:26.794Z,100351.75
2022-08-27T18:40:54.258Z,100351.92
2022-08-27T18:43:28.965Z,100352.29
2022-08-27T18:45:55.360Z,100354.84
2022-08-27T18:48:22.661Z,100355.26
2022-08-27T18:50:57.910Z,100356.54
2022-08-27T18:53:26.344Z,100359.29
2022-08-27T18:55:53.036Z,100361.44
2022-08-27T18:58:19.999Z,100360.95
2022-08-27T19:00:51.342Z,100365.30
2022-08-27T19:03:26.246Z,100363.58
2022-08-27T19:05:54.876Z,100367.14
2022-08-27T19:08:22.069Z,100367.83
2022-08-27T19:10:48.734Z,100374.09
2022-08-27T19:13:15.091Z,100374.61
2022-08-27T19:15:45.795Z,100375.71
2022-08-27T19:18:12.596Z,100379.83
2022-08-27T19:20:39.388Z,100377.52
2022-08-27T19:23:05.832Z,100382.20
2022-08-27T19:25:32.495Z,100376.40
2022-08-27T19:27:59.007Z,100375.10
2022-08-27T19:30:25.547Z,100375.25
2022-08-27T19:32:54.759Z,100378.70
2022-08-27T19:35:23.893Z,100380.59
2022-08-27T19:37:52.804Z,100380.75
2022-08-27T19:40:21.528Z,100381.31
2022-08-27T19:42:48.752Z,100381.34
2022-08-27T19:45:15.318Z,100376.68
2022-08-27T19:47:42.046Z,100373.02
2022-08-27T19:50:09.084Z,100375.70
2022-08-27T19:52:35.552Z,100376.09
2022-08-27T19:55:17.341Z,100374.25
2022-08-27T19:57:44.881Z,100376.27
2022-08-27T20:00:14.897Z,100377.69
2022-08-27T20:02:41.313Z,100375.80
2022-08-27T20:05:17.891Z,100380.83
2022-08-27T20:07:50.803Z,100381.45
2022-08-27T20:10:19.907Z,100378.88
2022-08-27T20:12:49.489Z,100381.96
2022-08-27T20:15:16.508Z,100378.04
2022-08-27T20:17:43.685Z,100378.30
2022-08-27T20:20:10.508Z,100378.00
2022-08-27T20:22:39.118Z,100374.55
2022-08-27T20:25:06.591Z,100380.39
2022-08-27T20:27:34.277Z,100381.15
2022-08-27T20:30:01.508Z,100382.89
2022-08-27T20:32:30.023Z,100382.54
2022-08-27T20:34:58.188Z,100381.65
2022-08-27T20:37:24.686Z,100384.36
2022-08-27T20:39:51.847Z,100381.34
2022-08-27T20:42:19.349Z,100384.52
2022-08-27T20:44:46.466Z,100383.69
2022-08-27T20:47:14.009Z,100383.73
2022-08-27T20:49:44.028Z,100383.46
2022-08-27T20:52:12.342Z,100382.81
2022-08-27T20:54:39.254Z,100386.41
2022-08-27T20:57:06.096Z,100384.48
2022-08-27T20:59:51.167Z,100385.59
2022-08-27T21:02:24.000Z,100386.39
2022-08-27T21:04:51.615Z,100381.01
2022-08-27T21:07:19.453Z,100379.29
2022-08-27T21:09:56.237Z,100376.46
2022-08-27T21:12:26.108Z,100375.76
2022-08-27T21:14:56.067Z,100369.70
2022-08-27T21:17:26.507Z,100373.35
2022-08-27T21:19:53.447Z,100372.19
2022-08-27T21:22:22.096Z,100375.44
2022-08-27T21:24:48.973Z,100376.95
2022-08-27T21:27:17.887Z,100378.78
2022-08-27T21:29:44.789Z,100382.23
2022-08-27T21:32:12.997Z,100385.13
2022-08-27T21:34:41.179Z,100381.98
2022-08-27T21:37:08.725Z,100378.48
2022-08-27T21:39:38.731Z,100377.30
2022-08-27T21:42:06.977Z,100375.61
2022-08-27T21:44:34.654Z,100374.13
2022-08-27T21:47:02.891Z,100374.86
2022-08-27T21:49:31.802Z,100377.02
2022-08-27T21:52:05.251Z,100374.23
2022-08-27T21:54:35.784Z,100372.54
2022-08-27T21:57:04.934Z,100376.67
2022-08-27T21:59:37.681Z,100377.25
2022-08-27T22:02:18.094Z,100375.69
2022-08-27T22:04:50.713Z,100373.84
2022-08-27T22:07:17.863Z,100369.94
2022-08-27T22:09:44.829Z,100367.99
2022-08-27T22:12:11.546Z,100368.05
2022-08-27T22:14:40.474Z,100366.00
2022-08-27T22:17:06.822Z,100363.57
2022-08-27T22:19:33.366Z,100367.11
2022-08-27T22:21:59.817Z,100367.02
2022-08-27T22:24:26.220Z,100363.73
2022-08-27T22:26:52.761Z,100361.52
2022-08-27T22:29:19.287Z,100360.67
2022-08-27T22:31:45.800Z,100362.09
2022-08-27T22:34:14.998Z,100356.99
2022-08-27T22:36:42.382Z,100358.95
2022-08-27T22:39:08.939Z,100358.89
2022-08-27T22:41:35.402Z,100359.65
2022-08-27T22:44:02.336Z,100362.42
2022-08-27T22:46:28.767Z,100362.20
2022-08-27T22:48:55.265Z,100363.25
2022-08-27T22:51:21.855Z,100360.44
2022-08-27T22:53:48.345Z,100364.88
2022-08-27T22:56:14.784Z,100364.92
2022-08-27T22:58:45.813Z,100360.31
2022-08-27T23:01:17.377Z,100361.10
2022-08-27T23:03:44.019Z,100359.40
2022-08-27T23:06:10.573Z,100363.24
2022-08-27T23:08:37.288Z,100357.27
2022-08-27T23:11:03.887Z,100360.86
2022-08-27T23:13:31.977Z,100359.02
2022-08-27T23:16:02.505Z,100356.79
2022-08-27T23:18:29.318Z,100354.02
2022-08-27T23:20:55.780Z,100352.41
2022-08-27T23:23:22.192Z,100351.17
2022-08-27T23:26:09.594Z,100354.20
2022-08-27T23:28:36.049Z,100353.94
2022-08-27T23:31:02.734Z,100352.63
2022-08-27T23:33:29.223Z,100352.14
2022-08-27T23:35:55.717Z,100356.73
2022-08-27T23:38:22.368Z,100360.69
2022-08-27T23:40:49.798Z,100361.42
2022-08-27T23:43:17.637Z,100362.06
2022-08-27T23:45:44.199Z,100364.32
2022-08-27T23:48:12.365Z,100366.63
2022-08-27T23:50:40.080Z,100367.34
2022-08-27T23:53:06.942Z,100368.05
2022-08-27T23:55:34.055Z,100365.94
2022-08-27T23:58:01.258Z,100364.69
